LSMA Airport Information

Runway Information
Runway 01 Length 4920 ft width 130 ft
Elevation 1460 ft Threshold 0 ft Heading 11
Runway 19 Length 4920 ft Width 130 ft
Elevation 1425 ft Threshold 0 ft Heading 191
Airport Frequencies
Type ARR Name ARR/DEP Frequency 33.787 MHZ
Type ARR Name ARR/DEP Frequency 139.45 MHZ
Type INFO Name INFO Frequency 138.05 MHZ
Type TWR Name TWR Frequency 119.625 MHZ
Airport Navaids
Airport Weather Information & NOTAM
ADDS - METARS form results

(0847 UTC 20 April 2018)
 
METAR text: LSMA 200750Z VRB02KT CAVOK 14/08 Q1025 RMK BLU
Conditions at: LSMA (ALPNACH , CH) observed 0750 UTC 20 April 2018
Temperature: 14.0°C (57°F)
Dewpoint: 8.0°C (46°F) [RH = 67%]
Pressure (altimeter): 30.27 inches Hg (1025.0 mb)
Winds: variable direction winds at 2 MPH (2 knots; 1.0 m/s)
Visibility: 6 or more miles (10+ km)
Ceiling: ceiling and visibility are OK
Clouds: unknown
Weather: no significant weather observed at this time